Time;durP1;ratioP1;P1;durP2;ratioP2;P2;SDS_P1;SDS_P2;PMS_P1;PMS_P2;Temp;Humidity;BMP_temperature;BMP_pressure;BME280_temperature;BME280_humidity;BME280_pressure;Samples;Min_cycle;Max_cycle;Signal;HPM_P1;HPM_P2
2023/03/14 00:01:21;;;;;;;2.27;1.50;;;17.50;61.30;18.60;98382.00;;;;5009545;28;20273;-44
2023/03/14 00:03:47;;;;;;;2.30;1.73;;;17.50;61.30;18.60;98359.00;;;;5009897;28;20198;-44
2023/03/14 00:06:13;;;;;;;2.10;1.43;;;17.50;62.10;18.60;98334.00;;;;5010024;28;20505;-44
2023/03/14 00:08:40;;;;;;;1.63;1.53;;;17.40;61.20;18.50;98349.00;;;;5009910;28;20207;-44
2023/03/14 00:11:19;;;;;;;2.00;1.57;;;17.40;61.20;18.50;98338.00;;;;5012892;28;20293;-44
2023/03/14 00:13:49;;;;;;;1.60;1.50;;;17.40;61.20;18.50;98327.00;;;;5014765;28;20182;-45
2023/03/14 00:16:15;;;;;;;2.07;1.73;;;17.40;61.20;18.50;98330.00;;;;5011576;28;20271;-44
2023/03/14 00:18:41;;;;;;;1.60;1.50;;;17.40;61.20;18.50;98345.00;;;;5008174;28;20188;-46
2023/03/14 00:21:07;;;;;;;2.20;1.50;;;17.40;61.20;18.50;98368.00;;;;5008974;28;20193;-45
2023/03/14 00:23:34;;;;;;;1.60;1.50;;;17.40;61.20;18.50;98375.00;;;;5009100;28;20199;-45
2023/03/14 00:26:05;;;;;;;1.50;1.40;;;17.40;61.20;18.50;98395.00;;;;5009349;28;20293;-44
2023/03/14 00:28:31;;;;;;;1.70;1.60;;;17.40;61.20;18.50;98401.00;;;;5009199;28;20204;-44
2023/03/14 00:30:57;;;;;;;1.97;1.60;;;17.40;61.20;18.50;98394.00;;;;5009121;28;20782;-45
2023/03/14 00:33:23;;;;;;;1.83;1.67;;;17.40;61.20;18.50;98325.00;;;;5009136;28;20262;-44
2023/03/14 00:36:08;;;;;;;1.60;1.50;;;17.30;61.10;18.50;98394.00;;;;5008082;28;20273;-44
2023/03/14 00:38:34;;;;;;;1.60;1.50;;;17.40;61.20;18.40;98392.00;;;;5007228;28;20192;-44
2023/03/14 00:41:06;;;;;;;1.80;1.40;;;17.40;61.20;18.40;98383.00;;;;5008754;28;20878;-44
2023/03/14 00:43:32;;;;;;;1.50;1.40;;;17.30;61.10;18.40;98376.00;;;;5007951;28;20204;-44
2023/03/14 00:45:58;;;;;;;1.60;1.40;;;17.30;61.10;18.40;98374.00;;;;5008627;28;20766;-43
2023/03/14 00:48:24;;;;;;;2.20;1.53;;;17.30;61.10;18.40;98368.00;;;;5009094;28;20194;-44
2023/03/14 00:50:50;;;;;;;1.97;1.60;;;17.30;61.10;18.40;98378.00;;;;5009328;28;20549;-44
2023/03/14 00:53:16;;;;;;;2.13;1.60;;;17.30;61.10;18.40;98367.00;;;;5008433;28;20190;-44
2023/03/14 00:55:42;;;;;;;1.50;1.40;;;17.30;61.10;18.40;98364.00;;;;5009592;28;20178;-44
2023/03/14 00:58:09;;;;;;;2.07;1.53;;;17.30;61.10;18.40;98388.00;;;;5008972;28;20286;-44
2023/03/14 01:00:35;;;;;;;2.63;1.67;;;17.30;61.10;18.30;98445.00;;;;5008182;28;20185;-44
2023/03/14 01:03:01;;;;;;;2.50;1.60;;;17.30;61.10;18.30;98443.00;;;;5009095;28;20172;-44
2023/03/14 01:05:27;;;;;;;1.63;1.53;;;17.20;61.00;18.30;98468.00;;;;5009574;28;20191;-44
2023/03/14 01:07:53;;;;;;;1.80;1.53;;;17.30;61.10;18.30;98457.00;;;;5009450;28;20291;-44
2023/03/14 01:10:19;;;;;;;1.60;1.50;;;17.20;60.90;18.30;98450.00;;;;5009417;28;20208;-45
2023/03/14 01:12:44;;;;;;;2.50;1.70;;;17.20;61.00;18.30;98440.00;;;;5009072;28;20174;-44
2023/03/14 01:15:10;;;;;;;1.43;1.33;;;17.20;61.00;18.30;98443.00;;;;5009318;28;20210;-44
2023/03/14 01:17:37;;;;;;;1.77;1.67;;;17.20;61.00;18.30;98441.00;;;;5009074;28;20211;-44
2023/03/14 01:20:04;;;;;;;2.37;1.70;;;17.20;61.00;18.30;98439.00;;;;5009488;28;20522;-45
2023/03/14 01:22:30;;;;;;;2.40;1.50;;;17.20;61.00;18.30;98436.00;;;;5007979;28;20172;-45
2023/03/14 01:24:56;;;;;;;1.87;1.43;;;17.20;61.00;18.30;98449.00;;;;5009070;28;20201;-46
2023/03/14 01:27:21;;;;;;;2.17;1.50;;;17.20;61.00;18.30;98433.00;;;;5008799;28;20202;-45
2023/03/14 01:29:47;;;;;;;1.70;1.60;;;17.20;61.00;18.30;98427.00;;;;5008946;28;20682;-44
2023/03/14 01:32:13;;;;;;;2.13;1.63;;;17.20;61.00;18.20;98410.00;;;;5008488;28;20177;-45
2023/03/14 01:34:39;;;;;;;1.80;1.40;;;17.20;61.00;18.20;98406.00;;;;5008953;28;20318;-45
2023/03/14 01:37:05;;;;;;;1.67;1.50;;;17.20;61.00;18.20;98386.00;;;;5008693;28;20245;-45
2023/03/14 01:39:31;;;;;;;1.60;1.47;;;17.10;60.90;18.20;98389.00;;;;5007825;28;20537;-45
2023/03/14 01:41:59;;;;;;;2.57;1.77;;;17.10;60.90;18.20;98384.00;;;;5008500;28;20189;-44
2023/03/14 01:44:24;;;;;;;1.60;1.50;;;17.10;61.80;18.20;98398.00;;;;5008801;28;20172;-45
2023/03/14 01:46:50;;;;;;;1.63;1.53;;;17.10;60.90;18.20;98399.00;;;;5008548;28;20232;-44
2023/03/14 01:49:29;;;;;;;1.60;1.50;;;17.10;61.00;18.20;98395.00;;;;5008564;28;20222;-45
2023/03/14 01:52:18;;;;;;;1.80;1.50;;;17.10;61.00;18.20;98397.00;;;;5007317;28;20218;-45
2023/03/14 01:54:54;;;;;;;1.50;1.40;;;17.10;61.00;18.10;98379.00;;;;5007754;28;20217;-45
2023/03/14 01:57:44;;;;;;;2.23;1.40;;;17.10;61.10;18.10;98384.00;;;;5007430;28;20209;-45
2023/03/14 02:00:14;;;;;;;1.63;1.33;;;17.00;61.00;18.10;98382.00;;;;5007990;28;20185;-43
2023/03/14 02:02:46;;;;;;;2.03;1.50;;;17.00;61.00;18.10;98383.00;;;;5008995;28;20179;-44
2023/03/14 02:05:14;;;;;;;1.57;1.20;;;17.00;61.00;18.10;98378.00;;;;5008665;28;20186;-44
2023/03/14 02:07:55;;;;;;;2.23;1.70;;;17.00;61.00;18.10;98367.00;;;;5007566;28;20664;-44
2023/03/14 02:10:24;;;;;;;1.50;1.40;;;17.00;61.10;18.10;98377.00;;;;5008462;28;20579;-45
2023/03/14 02:12:50;;;;;;;1.60;1.50;;;17.00;61.10;18.10;98372.00;;;;5007306;28;20181;-45
2023/03/14 02:15:16;;;;;;;1.67;1.30;;;17.00;61.00;18.10;98381.00;;;;5007347;28;20180;-43
2023/03/14 02:17:42;;;;;;;2.93;1.70;;;17.00;61.10;18.10;98367.00;;;;5009611;28;20195;-44
2023/03/14 02:20:51;;;;;;;1.87;1.43;;;17.00;61.10;18.10;98369.00;;;;5007862;28;20195;-44
2023/03/14 02:23:23;;;;;;;1.57;1.40;;;17.00;61.10;18.00;98365.00;;;;5008161;28;20188;-45
2023/03/14 02:25:58;;;;;;;1.50;1.40;;;17.00;61.10;18.00;98367.00;;;;5007366;28;20710;-45
2023/03/14 02:28:23;;;;;;;1.30;1.20;;;17.00;61.10;18.00;98373.00;;;;5007302;28;20218;-44
2023/03/14 02:30:49;;;;;;;1.30;1.10;;;17.00;61.10;18.00;98372.00;;;;5008547;28;20608;-44
2023/03/14 02:33:18;;;;;;;1.53;1.43;;;17.00;62.00;18.00;98366.00;;;;5007149;28;20211;-44
2023/03/14 02:36:07;;;;;;;1.60;1.30;;;16.90;61.10;18.00;98371.00;;;;5007237;28;20181;-43
2023/03/14 02:39:08;;;;;;;3.43;1.50;;;16.90;61.30;18.00;98377.00;;;;5004932;28;20208;-46
2023/03/14 02:41:34;;;;;;;1.77;1.50;;;16.90;61.50;18.00;98371.00;;;;5009646;28;20522;-44
2023/03/14 02:43:59;;;;;;;1.40;1.30;;;16.90;61.50;18.00;98367.00;;;;5010858;28;20179;-45
2023/03/14 02:46:25;;;;;;;3.87;1.60;;;16.90;61.80;18.00;98366.00;;;;5011647;28;20262;-44
2023/03/14 02:49:07;;;;;;;2.63;1.60;;;16.90;61.90;18.00;98358.00;;;;5005861;28;20200;-44
2023/03/14 02:51:32;;;;;;;2.87;1.50;;;16.90;61.90;18.00;98356.00;;;;5010840;28;20204;-44
2023/03/14 02:53:58;;;;;;;1.70;1.60;;;17.00;62.00;18.00;98358.00;;;;5010339;28;20590;-44
2023/03/14 02:56:24;;;;;;;2.73;1.60;;;16.90;61.80;18.00;98359.00;;;;5011967;28;20534;-44
2023/03/14 02:58:50;;;;;;;1.63;1.40;;;16.90;61.80;18.00;98360.00;;;;5011637;28;20188;-44
2023/03/14 03:01:15;;;;;;;1.47;1.33;;;16.90;61.90;17.90;98360.00;;;;5011724;28;20193;-44
2023/03/14 03:03:41;;;;;;;1.60;1.50;;;16.90;61.80;18.00;98350.00;;;;5011894;28;20179;-44
2023/03/14 03:06:07;;;;;;;1.93;1.60;;;16.90;61.70;17.90;98340.00;;;;5011577;28;20194;-44
2023/03/14 03:08:33;;;;;;;2.17;1.37;;;16.90;61.80;17.90;98342.00;;;;5011638;28;20230;-44
2023/03/14 03:10:58;;;;;;;1.43;1.33;;;16.90;61.80;17.90;98331.00;;;;5010063;28;20270;-44
2023/03/14 03:13:24;;;;;;;1.47;1.37;;;16.80;61.70;17.90;98333.00;;;;5011299;28;20233;-45
2023/03/14 03:15:50;;;;;;;1.73;1.20;;;16.90;61.80;17.90;98325.00;;;;5011288;28;20550;-45
2023/03/14 03:18:16;;;;;;;1.60;1.43;;;16.90;61.80;17.90;98318.00;;;;5010969;28;20195;-45
2023/03/14 03:20:42;;;;;;;2.60;1.50;;;16.90;61.70;17.90;98318.00;;;;5011364;28;20181;-46
2023/03/14 03:23:07;;;;;;;1.73;1.37;;;16.90;61.80;17.90;98316.00;;;;5010806;28;20188;-44
2023/03/14 03:25:33;;;;;;;1.50;1.40;;;16.80;61.70;17.90;98305.00;;;;5011450;28;20240;-44
2023/03/14 03:27:59;;;;;;;1.23;1.20;;;16.80;61.70;17.90;98307.00;;;;5010797;28;20567;-45
2023/03/14 03:30:25;;;;;;;2.80;1.40;;;16.80;62.50;17.90;98299.00;;;;5010854;28;20207;-45
2023/03/14 03:32:51;;;;;;;1.27;1.17;;;16.80;61.70;17.90;98309.00;;;;5010783;28;20176;-44
2023/03/14 03:35:16;;;;;;;1.13;1.10;;;16.90;61.80;17.90;98308.00;;;;5010851;28;20181;-46
2023/03/14 03:37:42;;;;;;;1.43;1.23;;;16.80;61.70;17.90;98306.00;;;;5010902;28;20198;-45
2023/03/14 03:40:09;;;;;;;1.33;1.23;;;16.80;61.70;17.90;98303.00;;;;5010806;28;20190;-44
2023/03/14 03:42:35;;;;;;;1.50;1.40;;;16.80;61.70;17.90;98309.00;;;;5010646;28;20236;-44
2023/03/14 03:45:01;;;;;;;1.30;1.20;;;16.80;61.70;17.80;98315.00;;;;5011137;28;20600;-44
2023/03/14 03:47:27;;;;;;;1.63;1.47;;;16.80;61.70;17.80;98312.00;;;;5009678;28;20212;-44
2023/03/14 03:49:52;;;;;;;1.50;1.40;;;16.80;61.70;17.80;98303.00;;;;5010405;28;20176;-45
2023/03/14 03:52:18;;;;;;;1.80;1.37;;;16.80;61.70;17.80;98308.00;;;;5010581;28;20220;-44
2023/03/14 03:54:44;;;;;;;1.50;1.30;;;16.80;61.70;17.80;98321.00;;;;5009703;28;20676;-45
2023/03/14 03:57:10;;;;;;;1.43;1.30;;;16.80;61.70;17.80;98299.00;;;;5010468;28;20338;-45
2023/03/14 03:59:36;;;;;;;1.50;1.13;;;16.80;61.70;17.80;98296.00;;;;5010841;28;20585;-45
2023/03/14 04:02:01;;;;;;;1.20;1.07;;;16.70;61.70;17.80;98292.00;;;;5010511;28;20179;-44
2023/03/14 04:04:27;;;;;;;1.10;1.10;;;16.80;61.80;17.80;98282.00;;;;5009375;28;20194;-45
2023/03/14 04:06:53;;;;;;;1.70;1.47;;;16.80;61.80;17.80;98286.00;;;;5010541;28;20183;-44
2023/03/14 04:09:19;;;;;;;1.50;1.40;;;16.70;61.70;17.80;98287.00;;;;5010416;28;20618;-44
2023/03/14 04:11:44;;;;;;;1.20;1.10;;;16.70;61.70;17.70;98289.00;;;;5010389;28;20205;-44
2023/03/14 04:14:10;;;;;;;1.20;1.10;;;16.70;61.70;17.70;98290.00;;;;5010371;28;20223;-44
2023/03/14 04:16:36;;;;;;;1.47;1.30;;;16.80;61.80;17.70;98289.00;;;;5014220;28;20181;-44
2023/03/14 04:19:02;;;;;;;1.43;1.33;;;16.70;61.70;17.80;98288.00;;;;5015819;28;20200;-44
2023/03/14 04:21:28;;;;;;;1.57;1.30;;;16.70;61.70;17.70;98287.00;;;;5014808;28;20675;-44
2023/03/14 04:23:54;;;;;;;1.47;1.37;;;16.70;61.70;17.70;98288.00;;;;5014073;28;20194;-45
2023/03/14 04:26:20;;;;;;;1.07;1.03;;;16.70;61.70;17.70;98281.00;;;;5015003;28;20184;-44
2023/03/14 04:28:45;;;;;;;2.53;1.20;;;16.70;62.60;17.70;98279.00;;;;5008434;28;20649;-44
2023/03/14 04:31:17;;;;;;;4.43;1.40;;;16.70;62.10;17.70;98273.00;;;;5010000;28;20199;-44
2023/03/14 04:33:42;;;;;;;1.80;1.53;;;16.70;62.70;17.70;98267.00;;;;5010335;28;20180;-45
2023/03/14 04:36:08;;;;;;;1.87;1.10;;;16.70;62.40;17.70;98204.00;;;;5009655;28;20187;-44
2023/03/14 04:38:34;;;;;;;1.57;1.20;;;16.70;62.30;17.70;98260.00;;;;5009938;28;20195;-44
2023/03/14 04:41:00;;;;;;;2.27;1.27;;;16.70;62.30;17.70;98263.00;;;;5010042;28;20557;-45
2023/03/14 04:43:26;;;;;;;3.40;1.50;;;16.70;62.30;17.70;98257.00;;;;5010177;28;20366;-43
2023/03/14 04:45:56;;;;;;;4.20;1.70;;;16.70;62.10;17.70;98254.00;;;;5010321;28;20187;-44
2023/03/14 04:48:22;;;;;;;3.60;1.60;;;16.60;61.90;17.70;98241.00;;;;5011030;28;20229;-44
2023/03/14 04:50:48;;;;;;;4.63;1.53;;;16.60;61.90;17.70;98249.00;;;;5009539;28;20653;-43
2023/03/14 04:53:14;;;;;;;1.57;1.40;;;16.60;61.90;17.70;98241.00;;;;5010552;28;20176;-43
2023/03/14 04:55:40;;;;;;;1.67;1.40;;;16.60;61.80;17.70;98241.00;;;;5010722;28;20223;-43
2023/03/14 04:58:06;;;;;;;3.50;1.87;;;16.60;61.80;17.70;98236.00;;;;5010387;28;20219;-43
2023/03/14 05:00:32;;;;;;;2.70;1.40;;;16.60;61.70;17.60;98233.00;;;;5010613;28;20692;-43
2023/03/14 05:02:58;;;;;;;3.67;1.30;;;16.60;61.70;17.60;98227.00;;;;5009629;28;20690;-43
2023/03/14 05:05:23;;;;;;;1.47;1.37;;;16.60;61.70;17.60;98207.00;;;;5010495;28;20553;-43
2023/03/14 05:07:49;;;;;;;2.90;1.80;;;16.60;62.40;17.60;98213.00;;;;5010303;28;20201;-45
2023/03/14 05:10:15;;;;;;;1.60;1.23;;;16.60;61.50;17.60;98221.00;;;;5009976;28;20206;-43
2023/03/14 05:12:41;;;;;;;1.73;1.30;;;16.60;61.50;17.60;98215.00;;;;5009007;28;20203;-44
2023/03/14 05:15:10;;;;;;;1.77;1.23;;;16.60;61.50;17.60;98216.00;;;;5002888;28;20718;-45
2023/03/14 05:17:39;;;;;;;2.33;1.40;;;16.60;61.50;17.60;98205.00;;;;5007021;28;20698;-44
2023/03/14 05:20:14;;;;;;;1.77;1.43;;;16.60;61.70;17.60;98210.00;;;;4994412;28;20181;-44
2023/03/14 05:22:40;;;;;;;4.10;1.73;;;16.50;61.70;17.60;98208.00;;;;5011166;28;20186;-44
2023/03/14 05:25:07;;;;;;;2.17;1.37;;;16.50;61.60;17.60;98201.00;;;;5009808;28;20203;-44
2023/03/14 05:27:33;;;;;;;4.13;1.70;;;16.50;61.60;17.60;98201.00;;;;5008537;28;20203;-43
2023/03/14 05:29:59;;;;;;;4.87;1.70;;;16.50;61.50;17.60;98196.00;;;;5011877;28;20584;-44
2023/03/14 05:32:24;;;;;;;3.97;1.87;;;16.50;62.30;17.60;98188.00;;;;5009915;28;20259;-44
2023/03/14 05:34:50;;;;;;;6.00;2.10;;;16.50;61.50;17.60;98195.00;;;;5009935;28;20168;-44
2023/03/14 05:37:16;;;;;;;9.57;2.53;;;16.50;61.50;17.50;98203.00;;;;5009400;28;20195;-44
2023/03/14 05:39:42;;;;;;;8.27;2.40;;;16.50;61.60;17.50;98208.00;;;;5009595;28;20173;-44
2023/03/14 05:42:08;;;;;;;8.27;2.70;;;16.50;61.70;17.50;98203.00;;;;5009001;28;20188;-44
2023/03/14 05:44:33;;;;;;;11.33;3.13;;;16.50;61.70;17.50;98198.00;;;;5008742;28;20183;-44
2023/03/14 05:46:59;;;;;;;15.17;2.93;;;16.50;61.80;17.50;98196.00;;;;5009042;28;20175;-44
2023/03/14 05:49:25;;;;;;;12.40;3.10;;;16.50;61.90;17.50;98192.00;;;;5009577;28;20563;-45
2023/03/14 05:51:51;;;;;;;6.77;2.70;;;16.50;62.30;17.50;98200.00;;;;5014709;28;20210;-44
2023/03/14 05:54:17;;;;;;;7.70;2.50;;;16.50;62.30;17.50;98195.00;;;;5005301;28;20175;-44
2023/03/14 05:56:43;;;;;;;6.60;2.70;;;16.50;62.50;17.50;98195.00;;;;5004254;28;20783;-44
2023/03/14 05:59:09;;;;;;;9.53;2.53;;;16.50;62.60;17.50;98198.00;;;;5000199;28;20659;-44
2023/03/14 06:01:35;;;;;;;8.30;2.67;;;16.50;62.60;17.50;98189.00;;;;5003679;28;20585;-44
2023/03/14 06:04:01;;;;;;;8.37;2.70;;;16.50;62.70;17.50;98184.00;;;;5003216;28;20184;-43
2023/03/14 06:06:26;;;;;;;10.67;2.90;;;16.50;62.60;17.50;98189.00;;;;5009401;28;20188;-43
2023/03/14 06:08:52;;;;;;;7.43;2.53;;;16.50;62.60;17.50;98189.00;;;;5008688;28;20217;-45
2023/03/14 06:11:18;;;;;;;9.00;2.73;;;16.40;62.60;17.50;98192.00;;;;5008828;28;20235;-44
2023/03/14 06:13:44;;;;;;;9.77;2.67;;;16.40;62.90;17.50;98193.00;;;;5003912;28;20192;-43
2023/03/14 06:16:10;;;;;;;6.67;2.40;;;16.50;63.00;17.50;98204.00;;;;5013592;28;20919;-43
2023/03/14 06:18:35;;;;;;;9.07;2.50;;;16.40;62.70;17.50;98199.00;;;;5014258;28;20197;-44
2023/03/14 06:21:01;;;;;;;10.13;2.70;;;16.50;62.90;17.50;98193.00;;;;5013971;28;20207;-44
2023/03/14 06:23:27;;;;;;;5.70;2.33;;;16.40;62.70;17.50;98192.00;;;;5012882;28;20278;-43
2023/03/14 06:25:52;;;;;;;7.30;2.23;;;16.40;62.60;17.50;98187.00;;;;5013275;28;20173;-44
2023/03/14 06:28:18;;;;;;;5.57;2.57;;;16.40;62.60;17.40;98180.00;;;;5012436;28;20605;-45
2023/03/14 06:30:44;;;;;;;4.80;2.30;;;16.40;62.70;17.40;98197.00;;;;5012007;28;20210;-44
2023/03/14 06:33:10;;;;;;;4.50;2.10;;;16.40;62.70;17.40;98191.00;;;;5012512;28;20202;-45
2023/03/14 06:35:36;;;;;;;4.83;2.40;;;16.40;62.60;17.40;98185.00;;;;5012913;28;20222;-45
2023/03/14 06:38:01;;;;;;;6.17;2.00;;;16.40;62.60;17.40;98195.00;;;;5012613;28;20192;-45
2023/03/14 06:40:27;;;;;;;2.20;1.70;;;16.40;62.60;17.40;98189.00;;;;5012670;28;20180;-45
2023/03/14 06:42:53;;;;;;;3.47;1.97;;;16.40;62.60;17.30;98192.00;;;;5011890;28;20693;-44
2023/03/14 06:45:19;;;;;;;4.17;2.37;;;16.40;62.50;17.40;98138.00;;;;5010930;28;20191;-46
2023/03/14 06:47:44;;;;;;;4.73;2.00;;;16.40;62.50;17.40;98191.00;;;;5012639;28;20196;-44
2023/03/14 06:50:10;;;;;;;3.37;1.90;;;16.40;62.50;17.40;98203.00;;;;5011990;28;20215;-44
2023/03/14 06:52:36;;;;;;;5.30;2.30;;;16.40;62.50;17.40;98196.00;;;;5011954;28;20171;-43
2023/03/14 06:55:03;;;;;;;3.90;1.83;;;16.30;62.40;17.40;98193.00;;;;5012582;28;20218;-44
2023/03/14 06:57:29;;;;;;;4.60;2.27;;;16.30;62.40;17.40;98190.00;;;;5010797;28;20212;-44
2023/03/14 06:59:54;;;;;;;3.50;2.10;;;16.40;62.50;17.30;98194.00;;;;5010797;28;20927;-45
2023/03/14 07:02:21;;;;;;;6.43;2.17;;;16.30;62.30;17.40;98204.00;;;;5012099;28;20190;-45
2023/03/14 07:04:47;;;;;;;3.03;1.90;;;16.30;62.30;17.30;98203.00;;;;5012505;28;20278;-45
2023/03/14 07:07:13;;;;;;;4.13;2.30;;;16.30;62.40;17.30;98199.00;;;;5012154;28;20241;-45
2023/03/14 07:09:39;;;;;;;3.53;1.83;;;16.40;62.50;17.30;98212.00;;;;5008652;28;20211;-45
2023/03/14 07:12:05;;;;;;;3.20;2.10;;;16.30;62.30;17.30;98206.00;;;;5010713;28;20234;-46
2023/03/14 07:14:30;;;;;;;4.70;1.80;;;16.30;62.40;17.30;98205.00;;;;5010474;28;20171;-45
2023/03/14 07:16:56;;;;;;;4.57;1.90;;;16.30;62.30;17.30;98198.00;;;;5011264;28;20172;-45
2023/03/14 07:19:22;;;;;;;3.80;2.00;;;16.30;62.40;17.30;98212.00;;;;5009820;28;20167;-45
2023/03/14 07:21:48;;;;;;;5.00;1.73;;;16.30;62.40;17.30;98216.00;;;;5011084;28;20179;-44
2023/03/14 07:24:14;;;;;;;4.00;2.03;;;16.30;62.40;17.30;98225.00;;;;5009921;28;20275;-44
2023/03/14 07:26:39;;;;;;;6.87;1.90;;;16.30;62.40;17.30;98228.00;;;;5009758;28;20184;-45
2023/03/14 07:29:05;;;;;;;3.00;1.80;;;16.30;62.40;17.30;98224.00;;;;5010044;28;20241;-44
2023/03/14 07:31:31;;;;;;;3.07;1.90;;;16.30;62.30;17.30;98228.00;;;;5010842;28;20204;-44
2023/03/14 07:33:57;;;;;;;3.37;1.70;;;16.30;62.30;17.30;98220.00;;;;5009599;28;20255;-44
2023/03/14 07:36:22;;;;;;;2.73;1.80;;;16.30;62.30;17.30;98234.00;;;;5011983;28;20263;-44
2023/03/14 07:38:48;;;;;;;4.53;1.73;;;16.30;62.30;17.30;98233.00;;;;5012179;28;20263;-44
2023/03/14 07:41:14;;;;;;;5.03;1.80;;;16.30;62.30;17.30;98238.00;;;;5011863;28;20182;-44
2023/03/14 07:43:40;;;;;;;2.53;1.90;;;16.30;62.30;17.30;98230.00;;;;5012132;28;20654;-44
2023/03/14 07:46:06;;;;;;;3.30;1.70;;;16.30;62.30;17.30;98229.00;;;;5012364;28;20909;-45
2023/03/14 07:48:31;;;;;;;3.27;1.70;;;16.30;62.40;17.30;98240.00;;;;5010997;28;20206;-45
2023/03/14 07:50:57;;;;;;;3.40;1.97;;;16.30;62.40;17.20;98233.00;;;;5010682;28;20199;-44
2023/03/14 07:53:23;;;;;;;2.90;1.73;;;16.20;62.30;17.20;98240.00;;;;5011711;28;20590;-44
2023/03/14 07:55:51;;;;;;;3.37;1.70;;;16.20;62.40;17.20;98228.00;;;;5011768;28;20179;-44
2023/03/14 07:58:17;;;;;;;2.37;1.70;;;16.30;62.50;17.20;98236.00;;;;5010731;28;20219;-43
2023/03/14 08:00:43;;;;;;;1.83;1.50;;;16.20;62.30;17.20;98239.00;;;;5013849;28;20182;-44
2023/03/14 08:03:09;;;;;;;3.43;1.47;;;16.20;62.30;17.20;98242.00;;;;5011370;28;20191;-45
2023/03/14 08:05:36;;;;;;;1.70;1.50;;;16.20;62.40;17.20;98252.00;;;;5007929;28;20230;-44
2023/03/14 08:08:02;;;;;;;4.00;1.80;;;16.20;62.70;17.20;98255.00;;;;5011444;28;20191;-44
2023/03/14 08:10:28;;;;;;;2.27;1.47;;;16.20;62.70;17.20;98254.00;;;;5011303;28;20732;-44
2023/03/14 08:12:55;;;;;;;2.00;1.50;;;16.20;62.50;17.20;98248.00;;;;5010967;28;20168;-46
2023/03/14 08:15:21;;;;;;;7.20;1.80;;;16.20;62.50;17.20;98252.00;;;;5010456;28;20172;-44
2023/03/14 08:17:50;;;;;;;3.63;1.80;;;16.30;62.70;17.20;98249.00;;;;5014966;28;20246;-43
2023/03/14 08:20:20;;;;;;;4.23;2.17;;;16.20;62.70;17.20;98228.00;;;;5012590;28;20188;-44
2023/03/14 08:22:46;;;;;;;4.87;1.90;;;16.20;62.70;17.20;98250.00;;;;5011570;28;20172;-45
2023/03/14 08:25:11;;;;;;;2.33;1.60;;;16.20;62.70;17.20;98253.00;;;;5017542;28;20271;-44
2023/03/14 08:27:38;;;;;;;1.77;1.47;;;16.20;62.70;17.20;98260.00;;;;5008653;28;20234;-44
2023/03/14 08:30:06;;;;;;;2.00;1.60;;;16.20;62.70;17.20;98257.00;;;;5013953;28;20175;-45
2023/03/14 08:32:33;;;;;;;4.67;1.50;;;16.20;62.70;17.20;98259.00;;;;5011309;28;20254;-44
2023/03/14 08:34:58;;;;;;;2.23;1.50;;;16.20;62.70;17.20;98259.00;;;;5011631;28;20171;-44
2023/03/14 08:37:24;;;;;;;2.07;1.43;;;16.20;62.70;17.20;98269.00;;;;5009940;28;20192;-44
2023/03/14 08:39:51;;;;;;;4.63;1.70;;;16.20;62.70;17.20;98264.00;;;;5010259;28;20244;-44
2023/03/14 08:42:17;;;;;;;3.50;1.50;;;16.20;62.70;17.20;98264.00;;;;5010820;28;20202;-45
2023/03/14 08:44:43;;;;;;;1.53;1.40;;;16.20;62.70;17.20;98262.00;;;;5008877;28;20180;-45
2023/03/14 08:47:09;;;;;;;2.23;1.70;;;16.20;62.70;17.20;98267.00;;;;5006861;28;20192;-45
2023/03/14 08:49:35;;;;;;;1.93;1.40;;;16.20;62.70;17.20;98268.00;;;;5004873;28;20190;-45
2023/03/14 08:52:04;;;;;;;2.33;1.70;;;16.10;62.50;17.10;98273.00;;;;5010155;28;20215;-44
2023/03/14 08:54:30;;;;;;;1.70;1.50;;;16.10;62.50;17.10;98271.00;;;;5010564;28;20453;-44
2023/03/14 08:56:56;;;;;;;2.40;1.50;;;16.20;62.70;17.20;98278.00;;;;5009851;28;20183;-44
2023/03/14 08:59:22;;;;;;;1.90;1.30;;;16.10;62.50;17.10;98281.00;;;;5010036;28;20204;-45
2023/03/14 09:01:48;;;;;;;1.83;1.50;;;16.10;62.50;17.20;98286.00;;;;5010934;28;20186;-45
2023/03/14 09:04:14;;;;;;;3.33;1.47;;;16.10;62.50;17.10;98285.00;;;;5005907;28;20192;-44
2023/03/14 09:06:40;;;;;;;2.47;1.50;;;16.10;62.70;17.10;98286.00;;;;5003649;28;20185;-44
2023/03/14 09:09:05;;;;;;;2.50;1.60;;;16.10;62.90;17.10;98295.00;;;;5003571;28;20262;-45
2023/03/14 09:11:31;;;;;;;3.57;1.50;;;16.10;63.20;17.10;98302.00;;;;5005852;28;20207;-44
2023/03/14 09:13:57;;;;;;;3.10;1.20;;;16.10;63.30;17.20;98299.00;;;;4999327;28;20184;-44
2023/03/14 09:16:23;;;;;;;5.27;1.40;;;16.20;63.60;17.10;98298.00;;;;5004174;28;20199;-44
2023/03/14 09:18:49;;;;;;;2.70;1.20;;;16.20;63.70;17.20;98309.00;;;;5000551;28;20200;-44
2023/03/14 09:21:15;;;;;;;2.90;1.30;;;16.30;63.80;17.20;98323.00;;;;5002930;28;20185;-45
2023/03/14 09:23:41;;;;;;;2.57;1.33;;;16.30;63.80;17.20;98319.00;;;;5002761;28;20274;-44
2023/03/14 09:26:07;;;;;;;2.70;1.50;;;16.40;64.00;17.30;98325.00;;;;5003892;28;20194;-44
2023/03/14 09:28:33;;;;;;;1.40;1.30;;;16.40;64.00;17.30;98326.00;;;;5008032;28;20200;-44
2023/03/14 09:31:05;;;;;;;5.60;1.70;;;16.50;64.90;17.40;98330.00;;;;5005583;28;20251;-44
2023/03/14 09:33:31;;;;;;;2.33;1.40;;;16.60;64.00;17.50;98342.00;;;;5005512;28;20245;-45
2023/03/14 09:35:59;;;;;;;2.27;1.33;;;16.70;63.90;17.60;98364.00;;;;5003958;28;20644;-44
2023/03/14 09:38:26;;;;;;;1.50;1.30;;;16.80;64.00;17.60;98374.00;;;;5007016;28;20207;-44
2023/03/14 09:40:52;;;;;;;3.63;1.47;;;16.80;63.90;17.70;98399.00;;;;5009667;28;20197;-44
2023/03/14 09:43:18;;;;;;;3.17;1.20;;;16.90;63.60;17.70;98405.00;;;;5006504;28;20829;-44
2023/03/14 09:45:45;;;;;;;3.03;1.37;;;17.00;63.50;17.80;98399.00;;;;5007995;28;20187;-44
2023/03/14 09:48:21;;;;;;;2.53;1.37;;;17.00;63.70;17.80;98438.00;;;;5008303;28;20226;-44
2023/03/14 09:50:53;;;;;;;1.73;1.03;;;17.00;63.70;17.90;98451.00;;;;5011947;28;20199;-44
2023/03/14 09:53:44;;;;;;;1.50;1.10;;;17.10;63.70;17.90;98458.00;;;;4995616;28;20182;-45
2023/03/14 09:56:28;;;;;;;2.87;1.77;;;17.20;63.70;18.00;98452.00;;;;5003920;28;20196;-45
2023/03/14 09:59:04;;;;;;;1.57;1.37;;;17.20;63.50;18.00;98481.00;;;;4995317;28;20242;-45
2023/03/14 10:01:31;;;;;;;2.07;1.00;;;17.20;63.40;18.00;98486.00;;;;5011536;28;20263;-45
2023/03/14 10:04:04;;;;;;;3.37;1.20;;;17.30;63.40;18.00;98501.00;;;;5012638;28;20235;-44
2023/03/14 10:06:30;;;;;;;4.70;1.00;;;17.30;63.40;18.10;98509.00;;;;5011441;28;20178;-44
2023/03/14 10:08:59;;;;;;;4.30;1.30;;;17.30;63.40;18.10;98518.00;;;;5014785;28;20201;-45
2023/03/14 10:11:25;;;;;;;2.17;1.50;;;17.40;63.50;18.20;98527.00;;;;4992445;28;20217;-45
2023/03/14 10:14:12;;;;;;;6.83;1.50;;;17.40;63.60;18.20;98549.00;;;;5006852;28;20171;-44
2023/03/14 10:16:44;;;;;;;4.83;1.60;;;17.40;63.70;18.20;98559.00;;;;4994267;28;20176;-45
2023/03/14 10:19:12;;;;;;;4.80;1.60;;;17.40;63.70;18.20;98563.00;;;;5010910;28;20621;-44
2023/03/14 10:21:43;;;;;;;3.57;1.50;;;17.50;63.90;18.20;98571.00;;;;5010391;28;20676;-44
2023/03/14 10:24:25;;;;;;;9.60;2.07;;;17.50;64.00;18.30;98585.00;;;;5011626;28;20221;-44
2023/03/14 10:27:31;;;;;;;4.60;1.40;;;17.50;64.00;18.30;98605.00;;;;5012254;28;20718;-44
2023/03/14 10:30:03;;;;;;;9.63;1.70;;;17.50;64.00;18.30;98611.00;;;;5008312;28;20562;-45
2023/03/14 10:32:38;;;;;;;8.40;1.60;;;17.50;64.00;18.30;98618.00;;;;5009422;28;20175;-45
2023/03/14 10:35:24;;;;;;;10.53;2.10;;;17.50;64.00;18.40;98628.00;;;;5009281;28;20258;-45
2023/03/14 10:37:58;;;;;;;4.80;1.60;;;17.50;63.70;18.40;98658.00;;;;5012699;28;20199;-44
2023/03/14 10:40:30;;;;;;;7.03;1.90;;;17.50;63.60;18.40;98651.00;;;;5011541;28;20175;-44
2023/03/14 10:42:58;;;;;;;4.10;1.40;;;17.60;63.60;18.40;98655.00;;;;5010078;28;20199;-44
2023/03/14 10:45:43;;;;;;;3.57;1.27;;;17.60;63.60;18.40;98664.00;;;;5011352;28;20207;-44
2023/03/14 10:48:14;;;;;;;6.50;1.60;;;17.60;63.50;18.40;98670.00;;;;5012227;28;20578;-44
2023/03/14 10:51:01;;;;;;;6.50;2.00;;;17.60;63.30;18.40;98683.00;;;;5011914;28;20213;-44
2023/03/14 10:53:44;;;;;;;7.00;1.60;;;17.60;63.30;18.40;98682.00;;;;5010741;28;20190;-44
2023/03/14 10:56:15;;;;;;;3.53;1.30;;;17.60;63.20;18.40;98694.00;;;;5010988;28;20242;-45
2023/03/14 10:58:43;;;;;;;2.77;1.40;;;17.60;63.10;18.40;98700.00;;;;5006062;28;20223;-45